createdAt,value
2023-09-18T00:02:10.931Z,4.88
2023-09-18T00:04:38.263Z,4.55
2023-09-18T00:07:05.605Z,4.97
2023-09-18T00:09:32.950Z,4.70
2023-09-18T00:12:00.252Z,4.43
2023-09-18T00:14:27.863Z,6.45
2023-09-18T00:16:59.078Z,5.25
2023-09-18T00:19:28.580Z,6.13
2023-09-18T00:21:55.928Z,4.63
2023-09-18T00:24:23.399Z,4.53
2023-09-18T00:26:50.688Z,4.80
2023-09-18T00:29:18.013Z,4.35
2023-09-18T00:31:45.432Z,5.95
2023-09-18T00:34:12.757Z,4.75
2023-09-18T00:36:41.860Z,5.43
2023-09-18T00:39:09.160Z,4.00
2023-09-18T00:41:36.543Z,4.88
2023-09-18T00:44:04.066Z,4.85
2023-09-18T00:46:31.420Z,4.70
2023-09-18T00:48:58.709Z,5.40
2023-09-18T00:51:26.051Z,4.32
2023-09-18T00:53:55.666Z,5.80
2023-09-18T00:56:24.162Z,4.32
2023-09-18T00:58:52.041Z,5.80
2023-09-18T01:01:23.449Z,5.97
2023-09-18T01:03:51.214Z,6.38
2023-09-18T01:06:19.214Z,5.60
2023-09-18T01:08:47.890Z,5.15
2023-09-18T01:11:32.012Z,4.07
2023-09-18T01:14:03.301Z,4.18
2023-09-18T01:16:32.777Z,4.68
2023-09-18T01:19:00.144Z,4.80
2023-09-18T01:21:27.460Z,6.82
2023-09-18T01:23:56.159Z,5.97
2023-09-18T01:26:23.533Z,5.80
2023-09-18T01:28:51.117Z,6.35
2023-09-18T01:31:19.740Z,4.55
2023-09-18T01:33:48.426Z,4.70
2023-09-18T01:36:15.733Z,6.65
2023-09-18T01:38:43.057Z,5.40
2023-09-18T01:41:12.641Z,4.85
2023-09-18T01:43:39.998Z,4.45
2023-09-18T01:46:07.541Z,4.78
2023-09-18T01:48:34.876Z,5.18
2023-09-18T01:51:02.183Z,4.63
2023-09-18T01:53:29.514Z,4.50
2023-09-18T01:55:57.545Z,5.28
2023-09-18T01:58:26.197Z,4.13
2023-09-18T02:00:54.046Z,4.53
2023-09-18T02:03:44.825Z,5.90
2023-09-18T02:06:09.786Z,4.45
2023-09-18T02:08:37.345Z,4.20
2023-09-18T02:11:05.671Z,5.95
2023-09-18T02:13:34.333Z,4.53
2023-09-18T02:16:01.649Z,5.05
2023-09-18T02:18:28.935Z,5.00
2023-09-18T02:20:56.259Z,4.10
2023-09-18T02:23:23.666Z,5.55
2023-09-18T02:25:56.924Z,4.93
2023-09-18T02:28:24.215Z,6.68
2023-09-18T02:30:53.006Z,4.82
2023-09-18T02:33:20.417Z,4.43
2023-09-18T02:35:47.845Z,5.38
2023-09-18T02:38:15.242Z,4.32
2023-09-18T02:40:42.603Z,4.53
2023-09-18T02:43:09.925Z,4.20
2023-09-18T02:45:37.286Z,4.53
2023-09-18T02:48:06.331Z,5.38
2023-09-18T02:50:33.690Z,5.95
2023-09-18T02:53:01.105Z,7.28
2023-09-18T02:55:28.471Z,5.07
2023-09-18T02:57:55.769Z,5.38
2023-09-18T03:00:37.146Z,4.95
2023-09-18T03:03:10.112Z,4.40
2023-09-18T03:05:37.598Z,3.90
2023-09-18T03:08:05.375Z,5.63
2023-09-18T03:10:34.437Z,4.97
2023-09-18T03:13:01.986Z,6.70
2023-09-18T03:15:29.291Z,5.05
2023-09-18T03:17:56.708Z,5.72
2023-09-18T03:20:25.748Z,4.63
2023-09-18T03:22:53.094Z,4.20
2023-09-18T03:25:20.357Z,5.43
2023-09-18T03:27:47.628Z,4.13
2023-09-18T03:30:16.766Z,4.53
2023-09-18T03:32:44.158Z,6.63
2023-09-18T03:35:18.676Z,4.80
2023-09-18T03:37:47.329Z,5.38
2023-09-18T03:40:15.659Z,4.53
2023-09-18T03:42:42.943Z,3.83
2023-09-18T03:45:10.516Z,5.82
2023-09-18T03:47:37.890Z,7.15
2023-09-18T03:50:05.452Z,5.35
2023-09-18T03:52:32.757Z,4.30
2023-09-18T03:55:01.373Z,5.68
2023-09-18T03:57:28.675Z,4.00
2023-09-18T03:59:55.972Z,4.05
2023-09-18T04:02:23.469Z,5.07
2023-09-18T04:04:50.791Z,4.40
2023-09-18T04:07:19.528Z,4.18
2023-09-18T04:09:46.820Z,4.57
2023-09-18T04:12:15.429Z,3.90
2023-09-18T04:14:42.751Z,7.88
2023-09-18T04:17:10.256Z,5.30
2023-09-18T04:19:37.537Z,6.90
2023-09-18T04:22:05.009Z,4.35
2023-09-18T04:24:33.109Z,4.05
2023-09-18T04:27:00.546Z,4.32
2023-09-18T04:29:29.259Z,5.15
2023-09-18T04:31:56.682Z,3.80
2023-09-18T04:34:23.991Z,4.18
2023-09-18T04:36:51.301Z,4.90
2023-09-18T04:39:18.606Z,4.03
2023-09-18T04:41:45.901Z,3.80
2023-09-18T04:44:15.438Z,4.43
2023-09-18T04:46:44.347Z,4.45
2023-09-18T04:49:12.836Z,4.43
2023-09-18T04:51:40.210Z,4.32
2023-09-18T04:54:07.681Z,4.10
2023-09-18T04:56:35.384Z,4.53
2023-09-18T04:59:02.834Z,4.25
2023-09-18T05:01:30.958Z,3.92
2023-09-18T05:03:59.662Z,3.97
2023-09-18T05:06:27.165Z,5.18
2023-09-18T05:08:55.473Z,4.07
2023-09-18T05:11:23.055Z,4.40
2023-09-18T05:13:50.418Z,4.93
2023-09-18T05:16:18.444Z,4.30
2023-09-18T05:18:45.778Z,4.00
2023-09-18T05:21:14.376Z,3.92
2023-09-18T05:23:41.677Z,5.82
2023-09-18T05:26:09.294Z,5.90
2023-09-18T05:28:36.836Z,8.15
2023-09-18T05:31:04.681Z,4.50
2023-09-18T05:33:32.017Z,8.85
2023-09-18T05:35:59.373Z,4.43
2023-09-18T05:38:27.993Z,5.82
2023-09-18T05:40:55.281Z,6.07
2023-09-18T05:43:23.597Z,4.35
2023-09-18T05:45:51.006Z,4.85
2023-09-18T05:48:18.352Z,5.30
2023-09-18T05:50:45.753Z,6.97
2023-09-18T05:53:13.157Z,7.18
2023-09-18T05:55:41.787Z,10.15
2023-09-18T05:58:09.201Z,6.95
2023-09-18T06:00:37.820Z,6.80
2023-09-18T06:03:06.806Z,5.95
2023-09-18T06:05:35.115Z,7.05
2023-09-18T06:08:02.491Z,9.13
2023-09-18T06:10:29.905Z,7.97
2023-09-18T06:12:59.508Z,5.95
2023-09-18T06:15:26.791Z,6.75
2023-09-18T06:17:54.137Z,5.40
2023-09-18T06:20:21.533Z,8.40
2023-09-18T06:22:48.831Z,7.13
2023-09-18T06:25:16.402Z,9.82
2023-09-18T06:27:44.337Z,9.27
2023-09-18T06:30:13.479Z,7.63
2023-09-18T06:32:40.904Z,7.03
2023-09-18T06:35:08.647Z,10.32
2023-09-18T06:37:35.935Z,7.13
2023-09-18T06:40:05.112Z,6.97
2023-09-18T06:42:32.657Z,8.45
2023-09-18T06:45:00.197Z,8.02
2023-09-18T06:47:28.940Z,8.18
2023-09-18T06:49:56.364Z,7.50
2023-09-18T06:52:23.639Z,5.72
2023-09-18T06:54:50.953Z,9.30
2023-09-18T06:57:18.224Z,6.18
2023-09-18T06:59:45.655Z,5.90
2023-09-18T07:02:15.707Z,5.72
2023-09-18T07:07:15.614Z,5.57
2023-09-18T07:09:59.446Z,7.47
2023-09-18T07:12:30.743Z,6.22
2023-09-18T07:14:58.039Z,6.60
2023-09-18T07:17:25.424Z,6.53
2023-09-18T07:19:52.725Z,8.68
2023-09-18T07:22:21.312Z,6.00
2023-09-18T07:24:48.611Z,7.75
2023-09-18T07:27:16.310Z,6.15
2023-09-18T07:29:43.747Z,6.60
2023-09-18T07:32:11.210Z,8.52
2023-09-18T07:34:38.599Z,6.53
2023-09-18T07:37:05.894Z,5.07
2023-09-18T07:39:34.617Z,5.15
2023-09-18T07:42:01.907Z,6.80
2023-09-18T07:44:29.281Z,6.13
2023-09-18T07:46:56.568Z,8.32
2023-09-18T07:49:23.855Z,7.70
2023-09-18T07:51:51.134Z,14.60
2023-09-18T07:54:18.415Z,15.02
2023-09-18T07:56:47.082Z,12.35
2023-09-18T07:59:15.565Z,12.63
2023-09-18T08:01:43.014Z,11.77
2023-09-18T08:04:10.355Z,6.68
2023-09-18T08:06:38.816Z,10.82
2023-09-18T08:09:06.524Z,7.10
2023-09-18T08:11:33.893Z,7.35
2023-09-18T08:14:03.934Z,6.90
2023-09-18T08:18:58.607Z,7.28
2023-09-18T08:21:25.991Z,10.07
2023-09-18T08:23:53.262Z,10.13
2023-09-18T08:26:20.640Z,10.15
2023-09-18T08:28:47.938Z,12.43
2023-09-18T08:31:17.567Z,9.70
2023-09-18T08:33:44.896Z,8.73
2023-09-18T08:36:12.298Z,7.35
2023-09-18T08:38:39.618Z,9.40
2023-09-18T08:41:06.939Z,5.03
2023-09-18T08:43:34.220Z,7.43
2023-09-18T08:46:02.690Z,8.15
2023-09-18T08:48:36.010Z,5.63
2023-09-18T08:51:03.564Z,8.55
2023-09-18T08:53:30.902Z,8.55
2023-09-18T08:55:59.392Z,7.93
2023-09-18T08:58:26.863Z,7.90
2023-09-18T09:00:54.571Z,7.22
2023-09-18T09:03:24.617Z,6.32
2023-09-18T09:05:53.405Z,4.95
2023-09-18T09:08:21.382Z,5.47
2023-09-18T09:10:48.700Z,8.10
2023-09-18T09:13:26.904Z,7.20
2023-09-18T09:16:02.026Z,7.55
2023-09-18T09:18:29.897Z,5.38
2023-09-18T09:20:59.786Z,6.60
2023-09-18T09:23:27.307Z,8.15
2023-09-18T09:25:54.740Z,5.05
2023-09-18T09:28:30.951Z,9.25
2023-09-18T09:31:02.415Z,9.85
2023-09-18T09:33:30.673Z,7.13
2023-09-18T09:35:59.343Z,11.45
2023-09-18T09:38:30.073Z,6.93
2023-09-18T09:40:57.445Z,5.82
2023-09-18T09:43:24.731Z,5.82
2023-09-18T09:45:54.074Z,7.18
2023-09-18T09:48:22.361Z,9.32
2023-09-18T09:50:50.462Z,10.45
2023-09-18T09:53:19.398Z,9.65
2023-09-18T09:55:46.996Z,10.73
2023-09-18T09:58:15.228Z,15.23
2023-09-18T10:00:44.475Z,13.85
2023-09-18T10:03:12.520Z,12.20
2023-09-18T10:05:40.377Z,10.35
2023-09-18T10:08:08.638Z,7.72
2023-09-18T10:10:39.814Z,11.85
2023-09-18T10:13:10.567Z,8.73
2023-09-18T10:15:39.803Z,8.20
2023-09-18T10:18:15.084Z,6.70
2023-09-18T10:20:44.614Z,7.95
2023-09-18T10:23:19.009Z,5.05
2023-09-18T10:25:48.436Z,11.30
2023-09-18T10:28:16.304Z,9.07
2023-09-18T10:30:43.628Z,8.18
2023-09-18T10:33:11.045Z,6.90
2023-09-18T10:35:38.393Z,4.55
2023-09-18T10:38:05.704Z,8.13
2023-09-18T10:40:33.016Z,7.50
2023-09-18T10:43:01.612Z,5.07
2023-09-18T10:45:28.888Z,6.60
2023-09-18T10:47:56.351Z,5.32
2023-09-18T10:50:27.190Z,6.57
2023-09-18T10:52:54.573Z,8.10
2023-09-18T10:55:21.876Z,6.40
2023-09-18T10:57:52.917Z,7.20
2023-09-18T11:00:23.379Z,7.78
2023-09-18T11:02:51.417Z,6.38
2023-09-18T11:05:28.077Z,5.55
2023-09-18T11:08:10.535Z,4.95
2023-09-18T11:10:38.644Z,5.90
2023-09-18T11:13:08.734Z,5.20
2023-09-18T11:15:37.584Z,5.95
2023-09-18T11:18:09.078Z,4.68
2023-09-18T11:20:38.351Z,4.22
2023-09-18T11:23:11.691Z,3.40
2023-09-18T11:25:39.705Z,5.35
2023-09-18T11:28:08.444Z,5.40
2023-09-18T11:30:37.783Z,5.40
2023-09-18T11:33:05.568Z,6.55
2023-09-18T11:35:33.192Z,4.07
2023-09-18T11:38:10.232Z,6.60
2023-09-18T11:40:40.274Z,3.88
2023-09-18T11:43:20.563Z,3.83
2023-09-18T11:45:52.493Z,2.90
2023-09-18T11:48:20.066Z,5.68
2023-09-18T11:50:50.132Z,4.30
2023-09-18T11:55:46.565Z,5.90
2023-09-18T11:58:14.251Z,6.90
2023-09-18T12:00:47.675Z,4.53
2023-09-18T12:03:25.881Z,7.78
2023-09-18T12:05:54.682Z,11.25
2023-09-18T12:08:22.059Z,8.95
2023-09-18T12:10:52.545Z,15.80
2023-09-18T12:13:19.871Z,9.32
2023-09-18T12:15:47.166Z,9.73
2023-09-18T12:18:15.904Z,14.23
2023-09-18T12:20:48.300Z,6.53
2023-09-18T12:23:15.692Z,9.60
2023-09-18T12:25:43.006Z,16.05
2023-09-18T12:28:10.366Z,113.50
2023-09-18T12:30:37.681Z,56.70
2023-09-18T12:33:06.024Z,28.05
2023-09-18T12:35:33.385Z,26.25
2023-09-18T12:38:02.100Z,19.27
2023-09-18T12:40:29.855Z,13.45
2023-09-18T12:42:57.500Z,11.85
2023-09-18T12:45:25.030Z,8.32
2023-09-18T12:47:53.191Z,12.68
2023-09-18T12:50:20.641Z,18.38
2023-09-18T12:52:47.976Z,15.98
2023-09-18T12:55:26.659Z,13.40
2023-09-18T12:57:54.180Z,18.08
2023-09-18T13:00:22.272Z,16.20
2023-09-18T13:02:49.808Z,15.50
2023-09-18T13:05:20.762Z,13.30
2023-09-18T13:07:48.307Z,14.70
2023-09-18T13:10:15.932Z,13.05
2023-09-18T13:12:45.604Z,15.70
2023-09-18T13:15:13.443Z,13.00
2023-09-18T13:17:41.335Z,12.43
2023-09-18T13:20:11.774Z,12.60
2023-09-18T13:22:40.295Z,12.13
2023-09-18T13:25:08.315Z,9.25
2023-09-18T13:27:35.611Z,10.45
2023-09-18T13:30:07.935Z,11.05
2023-09-18T13:32:40.703Z,9.77
2023-09-18T13:35:09.199Z,11.32
2023-09-18T13:37:36.625Z,10.13
2023-09-18T13:40:07.315Z,9.60
2023-09-18T13:42:34.790Z,10.43
2023-09-18T13:45:02.595Z,11.00
2023-09-18T13:47:31.496Z,11.10
2023-09-18T13:50:00.608Z,10.85
2023-09-18T13:52:27.972Z,9.43
2023-09-18T13:54:55.322Z,12.10
2023-09-18T13:57:22.810Z,7.88
2023-09-18T13:59:50.562Z,8.95
2023-09-18T14:02:17.943Z,10.85
2023-09-18T14:04:46.728Z,11.25
2023-09-18T14:07:14.097Z,7.20
2023-09-18T14:09:41.416Z,7.57
2023-09-18T14:12:09.092Z,10.48
2023-09-18T14:14:36.800Z,9.70
2023-09-18T14:17:04.774Z,6.93
2023-09-18T14:19:32.114Z,9.15
2023-09-18T14:22:04.506Z,8.63
2023-09-18T14:24:31.827Z,7.22
2023-09-18T14:26:59.969Z,8.10
2023-09-18T14:29:27.412Z,10.77
2023-09-18T14:31:54.836Z,7.72
2023-09-18T14:34:22.145Z,9.90
2023-09-18T14:36:49.853Z,6.63
2023-09-18T14:39:18.550Z,7.10
2023-09-18T14:41:45.891Z,7.72
2023-09-18T14:44:13.230Z,7.78
2023-09-18T14:46:40.647Z,7.25
2023-09-18T14:49:08.309Z,7.35
2023-09-18T14:51:58.061Z,5.78
2023-09-18T14:54:25.957Z,6.10
2023-09-18T14:56:53.320Z,6.32
2023-09-18T14:59:32.116Z,6.15
2023-09-18T15:02:07.434Z,6.15
2023-09-18T15:04:34.880Z,5.53
2023-09-18T15:07:03.675Z,5.97
2023-09-18T15:09:31.056Z,7.10
2023-09-18T15:11:58.449Z,4.90
2023-09-18T15:14:25.982Z,6.40
2023-09-18T15:16:53.309Z,6.68
2023-09-18T15:19:21.239Z,4.68
2023-09-18T15:21:48.738Z,5.18
2023-09-18T15:24:18.994Z,4.10
2023-09-18T15:26:46.313Z,5.10
2023-09-18T15:29:13.655Z,5.20
2023-09-18T15:31:42.018Z,3.70
2023-09-18T15:34:10.708Z,4.70
2023-09-18T15:36:38.000Z,5.50
2023-09-18T15:39:05.464Z,5.25
2023-09-18T15:41:34.110Z,5.18
2023-09-18T15:44:01.545Z,6.22
2023-09-18T15:46:28.921Z,4.78
2023-09-18T15:48:57.742Z,4.35
2023-09-18T15:51:25.033Z,5.00
2023-09-18T15:53:52.355Z,5.25
2023-09-18T15:56:21.147Z,4.95
2023-09-18T15:58:50.090Z,4.40
2023-09-18T16:01:17.450Z,5.10
2023-09-18T16:03:48.032Z,4.78
2023-09-18T16:06:16.956Z,4.43
2023-09-18T16:08:44.341Z,4.85
2023-09-18T16:11:12.816Z,3.75
2023-09-18T16:13:40.220Z,5.07
2023-09-18T16:16:08.921Z,5.15
2023-09-18T16:18:36.269Z,4.40
2023-09-18T16:21:03.714Z,4.13
2023-09-18T16:23:31.136Z,6.00
2023-09-18T16:25:58.503Z,4.20
2023-09-18T16:28:25.882Z,4.45
2023-09-18T16:30:53.287Z,3.25
2023-09-18T16:33:22.045Z,3.95
2023-09-18T16:35:50.703Z,3.90
2023-09-18T16:38:18.121Z,4.20
2023-09-18T16:40:45.521Z,3.22
2023-09-18T16:43:12.865Z,3.03
2023-09-18T16:45:43.348Z,4.10
2023-09-18T16:48:12.125Z,3.72
2023-09-18T16:50:40.896Z,3.05
2023-09-18T16:53:08.215Z,3.65
2023-09-18T16:55:35.505Z,3.38
2023-09-18T16:58:02.822Z,2.60
2023-09-18T17:00:30.098Z,4.28
2023-09-18T17:02:57.538Z,3.20
2023-09-18T17:05:24.926Z,4.22
2023-09-18T17:07:53.582Z,3.58
2023-09-18T17:10:20.920Z,4.75
2023-09-18T17:12:48.233Z,3.50
2023-09-18T17:17:55.271Z,2.80
2023-09-18T17:20:23.317Z,2.75
2023-09-18T17:22:50.704Z,3.50
2023-09-18T17:25:19.334Z,2.83
2023-09-18T17:27:46.656Z,3.83
2023-09-18T17:30:15.631Z,2.28
2023-09-18T17:32:43.128Z,4.10
2023-09-18T17:35:10.763Z,3.63
2023-09-18T17:37:38.092Z,3.33
2023-09-18T17:40:06.230Z,3.75
2023-09-18T17:42:34.830Z,3.03
2023-09-18T17:45:02.236Z,3.50
2023-09-18T17:47:30.329Z,2.95
2023-09-18T17:49:57.826Z,2.90
2023-09-18T17:52:25.564Z,3.00
2023-09-18T17:54:54.240Z,3.08
2023-09-18T17:57:21.754Z,5.03
2023-09-18T17:59:52.139Z,3.75
2023-09-18T18:02:19.583Z,2.75
2023-09-18T18:04:47.918Z,2.70
2023-09-18T18:07:15.355Z,3.20
2023-09-18T18:09:42.640Z,2.60
2023-09-18T18:12:10.396Z,2.97
2023-09-18T18:14:37.772Z,2.90
2023-09-18T18:17:06.380Z,2.97
2023-09-18T18:19:33.714Z,2.50
2023-09-18T18:22:01.055Z,2.83
2023-09-18T18:24:28.482Z,2.85
2023-09-18T18:26:55.817Z,4.07
2023-09-18T18:29:23.121Z,2.80
2023-09-18T18:31:51.549Z,2.63
2023-09-18T18:34:20.154Z,3.70
2023-09-18T18:36:49.431Z,2.65
2023-09-18T18:39:17.048Z,2.20
2023-09-18T18:41:44.334Z,2.60
2023-09-18T18:44:11.847Z,4.22
2023-09-18T18:46:39.157Z,3.60
2023-09-18T18:49:06.464Z,3.08
2023-09-18T18:51:36.390Z,3.33
2023-09-18T18:56:31.920Z,3.08
2023-09-18T18:58:59.294Z,2.85
2023-09-18T19:01:28.021Z,3.80
2023-09-18T19:03:56.993Z,2.40
2023-09-18T19:06:24.452Z,2.75
2023-09-18T19:08:53.083Z,3.05
2023-09-18T19:11:20.780Z,2.50
2023-09-18T19:13:48.339Z,2.80
2023-09-18T19:16:15.869Z,3.08
2023-09-18T19:18:43.363Z,3.88
2023-09-18T19:21:12.328Z,3.63
2023-09-18T19:23:40.450Z,5.55
2023-09-18T19:26:12.116Z,13.90
2023-09-18T19:28:39.429Z,4.53
2023-09-18T19:31:09.565Z,3.58
2023-09-18T19:33:39.632Z,2.50
2023-09-18T19:36:08.438Z,2.78
2023-09-18T19:38:37.157Z,3.28
2023-09-18T19:41:05.674Z,4.55
2023-09-18T19:43:34.388Z,2.63
2023-09-18T19:46:02.047Z,3.50
2023-09-18T19:48:29.926Z,2.85
2023-09-18T19:51:00.747Z,3.80
2023-09-18T19:53:28.649Z,4.35
2023-09-18T19:55:55.953Z,2.75
2023-09-18T19:58:23.327Z,2.85
2023-09-18T20:00:51.934Z,2.78
2023-09-18T20:03:19.309Z,3.50
2023-09-18T20:05:48.659Z,3.47
2023-09-18T20:08:15.960Z,3.08
2023-09-18T20:10:43.229Z,2.75
2023-09-18T20:13:11.356Z,2.83
2023-09-18T20:15:38.654Z,2.85
2023-09-18T20:18:07.643Z,3.28
2023-09-18T20:20:35.056Z,2.40
2023-09-18T20:23:02.412Z,2.80
2023-09-18T20:25:29.708Z,2.85
2023-09-18T20:27:57.006Z,2.70
2023-09-18T20:30:25.288Z,3.67
2023-09-18T20:32:52.864Z,3.60
2023-09-18T20:35:21.971Z,3.80
2023-09-18T20:37:49.514Z,2.83
2023-09-18T20:40:16.841Z,2.55
2023-09-18T20:42:44.169Z,4.38
2023-09-18T20:45:12.078Z,5.25
2023-09-18T20:47:39.577Z,3.33
2023-09-18T20:50:07.949Z,5.05
2023-09-18T20:52:38.167Z,2.53
2023-09-18T20:55:06.445Z,3.83
2023-09-18T20:57:33.739Z,4.93
2023-09-18T21:00:01.131Z,2.55
2023-09-18T21:02:28.524Z,2.90
2023-09-18T21:04:55.816Z,2.30
2023-09-18T21:07:23.075Z,2.13
2023-09-18T21:09:51.930Z,2.40
2023-09-18T21:12:21.734Z,2.20
2023-09-18T21:14:49.254Z,2.65
2023-09-18T21:17:16.632Z,2.45
2023-09-18T21:19:44.732Z,2.70
2023-09-18T21:22:12.106Z,3.33
2023-09-18T21:24:39.851Z,6.07
2023-09-18T21:27:08.636Z,3.35
2023-09-18T21:29:35.939Z,2.92
2023-09-18T21:32:04.671Z,3.83
2023-09-18T21:34:32.143Z,3.35
2023-09-18T21:36:59.796Z,2.58
2023-09-18T21:39:27.370Z,2.45
2023-09-18T21:41:54.682Z,2.40
2023-09-18T21:44:23.432Z,3.92
2023-09-18T21:46:50.732Z,3.58
2023-09-18T21:49:18.730Z,2.17
2023-09-18T21:51:46.028Z,2.40
2023-09-18T21:54:13.409Z,2.72
2023-09-18T21:56:40.778Z,2.70
2023-09-18T21:59:08.122Z,2.58
2023-09-18T22:01:37.279Z,2.10
2023-09-18T22:04:05.811Z,2.00
2023-09-18T22:06:33.695Z,2.70
2023-09-18T22:09:01.744Z,2.20
2023-09-18T22:11:29.616Z,1.60
2023-09-18T22:13:57.009Z,3.05
2023-09-18T22:16:24.299Z,2.10
2023-09-18T22:18:53.125Z,1.92
2023-09-18T22:21:20.856Z,1.80
2023-09-18T22:23:48.681Z,1.90
2023-09-18T22:26:16.732Z,1.60
2023-09-18T22:28:44.422Z,1.40
2023-09-18T22:31:14.670Z,2.33
2023-09-18T22:33:42.956Z,2.13
2023-09-18T22:36:24.734Z,1.92
2023-09-18T22:38:56.925Z,1.50
2023-09-18T22:41:24.369Z,1.92
2023-09-18T22:44:09.592Z,1.83
2023-09-18T22:46:56.146Z,2.40
2023-09-18T22:49:42.637Z,1.50
2023-09-18T22:52:28.937Z,2.00
2023-09-18T22:54:58.599Z,2.45
2023-09-18T22:57:27.751Z,2.70
2023-09-18T22:59:55.870Z,1.77
2023-09-18T23:02:24.080Z,1.67
2023-09-18T23:04:51.408Z,1.92
2023-09-18T23:07:19.221Z,1.52
2023-09-18T23:09:47.990Z,2.08
2023-09-18T23:12:16.613Z,1.40
2023-09-18T23:14:45.495Z,2.38
2023-09-18T23:17:13.784Z,1.40
2023-09-18T23:19:41.225Z,1.30
2023-09-18T23:22:12.659Z,1.40
2023-09-18T23:24:42.000Z,1.25
2023-09-18T23:27:11.090Z,1.15
2023-09-18T23:29:43.128Z,2.30
2023-09-18T23:32:11.713Z,1.88
2023-09-18T23:34:39.751Z,1.48
2023-09-18T23:37:07.297Z,1.30
2023-09-18T23:39:34.604Z,1.38
2023-09-18T23:42:04.487Z,2.00
2023-09-18T23:44:33.566Z,2.05
2023-09-18T23:47:02.673Z,1.47
2023-09-18T23:49:30.744Z,1.23
2023-09-18T23:51:58.396Z,1.40
2023-09-18T23:54:25.855Z,1.85
2023-09-18T23:56:53.146Z,1.70
2023-09-18T23:59:21.687Z,3.58
